Apple Grove, North Carolina
Current Conditions -  °F | °C
As of 7:35 AM on Saturday 25 Oct 2014 (Local Time) from KGEV Reporting Station
Clear Clear  
Wind Chill:   Ceiling: Unl
Heat Index:   Visibility: 10mi
Dew Point: -3°   Wind: 3mph
Humidity: 45%   Direction: 300°WNW
Pressure: 30.05"   Gusts: NA
Location:  36.524°N, 81.538°W
Report Text: KGEV 251135Z AUTO 30003KT 10SM CLR 09/M03 A3005 RMK AO2 T00851028
Loading
Personal Weather Stations






























Interactive Weather Map
Tropical Storm Tracking
New forecast layout! Learn more

10-Day Weather Forecast

Advertisements
Track Severe Weather on mobile